Latest Weather Observations for Port Lincoln Airport

IDS60801

Issued at 8:21 pm CDT Sunday 24 January 2021 (issued every 10 minutes, with the page automatically refreshed every 10 minutes)

About weather observations | Map of weather stations | Latest weather observations for SA | Other Formats
Station Details ID: 018192 Name: PORT LINCOLN AWS Lat: -34.60 Lon: 135.88 Height: 8.5 m
Data from the previous 72 hours. | See also: Recent months at Port Lincoln Airport
Date/Time
CDT
Temp
°C
App
Temp
°C
Dew
Point
°C
Rel
Hum
%
Delta-T
°C
Wind Press
QNH
hPa
Press
MSL
hPa
Rain since
9am
mm
Dir  Spd
km/h
Gust
km/h
Spd
kts
Gust
kts
24/08:00pm 29.5 30.6 15.6 43 8.6 E 4 9 2 5 1002.0 1002.0 0.0
24/07:30pm 30.6 29.3 13.8 35 10.2 SE 13 17 7 9 1002.0 1002.0 0.0
24/07:00pm 31.9 31.9 13.6 32 11.0 ENE 6 11 3 6 1001.7 1001.7 0.0
24/06:30pm 30.8 29.7 13.1 34 10.6 SSE 11 15 6 8 1001.7 1001.7 0.0
24/06:00pm 33.6 31.6 11.5 26 13.1 SSE 13 17 7 9 1001.5 1001.5 0.0
24/05:30pm 32.3 29.5 12.5 30 11.8 SE 19 20 10 11 1001.6 1001.6 0.0
24/05:00pm 34.6 30.4 11.1 24 13.8 SE 24 28 13 15 1001.7 1001.7 0.0
24/04:30pm 34.2 30.1 11.4 25 13.5 SE 24 28 13 15 1002.1 1002.1 0.0
24/04:00pm 33.4 28.8 12.4 28 12.5 SE 28 32 15 17 1002.5 1002.5 0.0
24/03:30pm 34.8 30.4 13.0 26 13.2 SSE 28 33 15 18 1002.7 1002.7 0.0
24/03:00pm 34.4 28.8 12.1 26 13.3 S 33 39 18 21 1003.0 1003.0 0.0
24/02:30pm 33.2 27.8 13.8 31 11.8 S 35 43 19 23 1003.4 1003.4 0.0
24/02:00pm 32.1 25.6 12.8 30 11.5 S 39 44 21 24 1003.6 1003.6 0.0
24/01:30pm 32.9 27.2 13.0 30 12.0 S 35 43 19 23 1003.5 1003.5 0.0
24/01:00pm 33.2 26.7 10.5 25 13.1 S 35 46 19 25 1003.4 1003.4 0.0
24/12:30pm 36.1 31.3 5.4 15 16.7 SW 20 30 11 16 1003.6 1003.6 0.0
24/12:00pm 35.5 31.1 9.1 20 15.1 SW 22 32 12 17 1003.8 1003.8 0.0
24/11:30am 34.7 29.2 9.2 21 14.6 WSW 28 35 15 19 1003.9 1003.9 0.0
24/11:00am 34.5 31.1 10.4 23 14.0 S 19 24 10 13 1003.6 1003.6 0.0
24/10:30am 32.9 31.2 9.7 24 13.3 SSW 9 19 5 10 1004.0 1004.0 0.0
24/10:00am 30.4 29.8 12.3 33 10.6 ENE 7 11 4 6 1003.8 1003.8 0.0
24/09:30am 29.6 28.4 9.7 29 11.2 S 6 9 3 5 1003.9 1003.9 0.0
24/09:00am 30.0 28.1 6.6 23 12.6 S 6 15 3 8 1003.9 1003.9 0.0
24/08:30am 30.0 27.4 6.0 22 12.7 SSE 9 13 5 7 1003.9 1003.9 0.0
24/08:00am 29.5 26.6 4.9 21 12.7 SW 9 15 5 8 1004.0 1004.0 0.0
24/07:30am 28.3 25.8 4.6 22 12.2 ENE 7 19 4 10 1003.6 1003.6 0.0
24/07:00am 25.9 24.0 6.5 29 10.1 W 6 17 3 9 1003.8 1003.8 0.0
24/06:30am 26.3 24.3 8.8 33 9.6 SE 9 11 5 6 1003.3 1003.3 0.0
24/06:00am 27.1 25.6 9.0 32 10.0 ENE 7 11 4 6 1003.3 1003.3 0.0
24/05:30am 29.3 28.6 8.4 27 11.5 NE 2 6 1 3 1003.0 1003.0 0.0
24/05:00am 30.0 25.7 7.8 25 12.1 NE 20 26 11 14 1002.8 1002.8 0.0
24/04:30am 32.3 27.4 4.2 17 14.7 NE 19 37 10 20 1003.1 1003.1 0.0
24/04:27am 32.4 27.9 4.2 17 14.7 NE 17 37 9 20 1002.9 1002.9 0.0
24/04:00am 26.8 25.2 10.1 35 9.3 SW 9 11 5 6 1003.4 1003.4 0.0
24/03:30am 25.7 23.8 11.8 42 8.0 S 13 19 7 10 1003.0 1003.0 0.0
24/03:00am 26.1 25.3 12.9 44 7.7 ESE 9 13 5 7 1003.4 1003.4 0.0
24/02:30am 26.0 25.0 11.0 39 8.5 SSE 7 11 4 6 1003.7 1003.7 0.0
24/02:00am 26.0 25.0 11.0 39 8.5 S 7 11 4 6 1003.9 1003.9 0.0
24/01:30am 26.3 25.4 10.5 37 8.9 ESE 6 9 3 5 1004.3 1004.3 0.0
24/01:00am 27.2 26.5 7.1 28 10.7 CALM 0 0 0 0 1004.8 1004.8 0.0
24/12:30am 27.2 26.4 6.6 27 10.9 CALM 0 7 0 4 1005.1 1005.1 0.0
24/12:00am 26.2 25.6 7.3 30 10.0 CALM 0 6 0 3 1005.2 1005.2 0.0
 
Date/Time
CDT
Temp
°C
App
Temp
°C
Dew
Point
°C
Rel
Hum
%
Delta-T
°C
Wind Press
QNH
hPa
Press
MSL
hPa
Rain since
9am
mm
Dir  Spd
km/h
Gust
km/h
Spd
kts
Gust
kts
23/11:30pm 25.3 24.3 7.4 32 9.5 N 2 7 1 4 1005.4 1005.4 0.0
23/11:00pm 24.6 22.6 6.4 31 9.4 NNW 6 7 3 4 1005.7 1005.7 0.0
23/10:30pm 23.7 21.1 6.0 32 9.0 NW 9 11 5 6 1005.8 1005.8 0.0
23/10:00pm 23.0 20.4 5.9 33 8.7 NW 9 11 5 6 1005.8 1005.8 0.0
23/09:30pm 23.4 20.8 6.2 33 8.8 NW 9 11 5 6 1005.7 1005.7 0.0
23/09:00pm 24.2 22.3 7.4 34 8.8 NW 7 9 4 5 1005.7 1005.7 0.0
23/08:30pm 25.9 24.4 8.4 33 9.5 ESE 6 7 3 4 1005.8 1005.8 0.0
23/08:00pm 27.1 24.2 8.0 30 10.3 SE 13 15 7 8 1005.9 1005.9 0.0
23/07:30pm 28.9 26.3 6.3 24 12.0 E 9 13 5 7 1005.8 1005.8 0.0
23/07:00pm 28.5 26.1 7.1 26 11.4 SE 9 13 5 7 1005.5 1005.5 0.0
23/06:30pm 28.6 25.7 8.3 28 11.1 SE 13 15 7 8 1006.0 1006.0 0.0
23/06:00pm 28.0 25.2 11.5 35 9.5 SSE 17 20 9 11 1006.1 1006.1 0.0
23/05:30pm 28.5 26.5 14.0 41 8.7 SSE 17 20 9 11 1006.2 1006.2 0.0
23/05:00pm 31.0 28.9 12.4 32 11.0 ESE 15 20 8 11 1006.1 1006.1 0.0
23/04:30pm 30.0 26.9 9.0 27 11.7 ESE 15 19 8 10 1006.3 1006.3 0.0
23/04:00pm 29.2 26.2 9.3 29 11.1 E 15 19 8 10 1006.4 1006.4 0.0
23/03:30pm 29.1 26.0 10.3 31 10.7 E 17 22 9 12 1006.5 1006.5 0.0
23/03:00pm 30.0 26.6 9.0 27 11.7 E 17 20 9 11 1006.8 1006.8 0.0
23/02:30pm 29.9 27.5 9.9 29 11.3 E 13 17 7 9 1007.4 1007.4 0.0
23/02:00pm 28.4 26.0 11.5 35 9.7 E 15 20 8 11 1007.7 1007.7 0.0
23/01:30pm 27.6 25.1 12.4 39 8.9 E 17 22 9 12 1007.8 1007.8 0.0
23/01:00pm 27.3 24.7 12.1 39 8.8 E 17 20 9 11 1008.1 1008.1 0.0
23/12:30pm 27.0 25.2 13.4 43 8.0 E 15 20 8 11 1008.5 1008.5 0.0
23/12:00pm 27.0 25.9 14.4 46 7.6 ENE 13 19 7 10 1008.8 1008.8 0.0
23/11:30am 26.3 25.9 16.3 54 6.2 E 13 17 7 9 1009.1 1009.1 0.0
23/11:00am 25.2 25.4 17.7 63 4.7 ENE 13 19 7 10 1009.2 1009.2 0.0
23/10:30am 24.4 24.6 17.6 66 4.2 E 13 17 7 9 1009.3 1009.3 0.0
23/10:00am 24.4 24.9 16.6 61 4.8 E 9 13 5 7 1009.6 1009.6 0.0
23/09:30am 23.7 24.1 17.2 67 4.0 E 11 15 6 8 1009.7 1009.7 0.0
23/09:00am 22.6 23.2 16.9 70 3.5 ENE 9 11 5 6 1009.8 1009.8 0.0
23/08:30am 21.9 22.6 17.1 74 2.9 NE 9 13 5 7 1009.5 1009.5 0.0
23/08:00am 20.1 22.1 16.1 78 2.4 CALM 0 0 0 0 1009.5 1009.5 0.0
23/07:30am 17.5 18.4 16.0 91 0.9 N 6 7 3 4 1009.2 1009.2 0.0
23/07:00am 15.3 15.3 13.5 89 1.0 N 6 7 3 4 1008.9 1008.9 0.0
23/06:30am 16.3 16.5 14.7 90 0.9 N 7 9 4 5 1008.8 1008.8 0.0
23/06:00am 16.6 16.8 14.8 89 1.0 N 7 9 4 5 1008.6 1008.6 0.0
23/05:30am 16.0 16.0 14.2 89 1.0 N 7 7 4 4 1008.5 1008.5 0.0
23/05:00am 16.4 16.4 14.1 86 1.3 N 7 11 4 6 1008.5 1008.5 0.0
23/04:30am 15.9 15.9 14.3 90 0.9 NNE 7 9 4 5 1008.6 1008.6 0.0
23/04:00am 14.5 15.2 12.2 86 1.2 CALM 0 0 0 0 1008.8 1008.8 0.0
23/03:30am 14.5 15.0 11.7 83 1.5 CALM 0 0 0 0 1008.9 1008.9 0.0
23/03:00am 14.9 14.8 12.2 84 1.5 WNW 4 7 2 4 1009.3 1009.3 0.0
23/02:30am 14.6 14.2 11.2 80 1.8 WNW 4 9 2 5 1009.6 1009.6 0.0
23/02:00am 14.3 14.4 10.1 76 2.2 CALM 0 0 0 0 1009.9 1009.9 0.0
23/01:30am 14.3 14.4 10.1 76 2.2 CALM 0 0 0 0 1010.3 1010.3 0.0
23/01:00am 15.2 15.4 10.4 73 2.5 CALM 0 0 0 0 1010.3 1010.3 0.0
23/12:30am 15.0 14.1 9.4 69 2.9 N 4 7 2 4 1010.7 1010.7 0.0
23/12:00am 15.4 15.1 10.0 70 2.8 NNE 2 6 1 3 1010.9 1010.9 0.0
 
Date/Time
CDT
Temp
°C
App
Temp
°C
Dew
Point
°C
Rel
Hum
%
Delta-T
°C
Wind Press
QNH
hPa
Press
MSL
hPa
Rain since
9am
mm
Dir  Spd
km/h
Gust
km/h
Spd
kts
Gust
kts
22/11:30pm 17.0 17.4 11.3 69 3.1 CALM 0 0 0 0 1011.3 1011.3 0.0
22/11:00pm 18.2 17.9 11.5 65 3.7 SE 4 7 2 4 1011.5 1011.5 0.0
22/10:30pm 19.4 17.9 11.9 62 4.2 SSE 11 13 6 7 1011.5 1011.5 0.0
22/10:00pm 19.4 18.5 11.4 60 4.4 S 7 11 4 6 1011.5 1011.5 0.0
22/09:30pm 20.8 18.1 10.3 51 5.7 SSE 15 19 8 10 1011.3 1011.3 0.0
22/09:00pm 20.7 18.6 9.9 50 5.8 ESE 11 13 6 7 1011.0 1011.0 0.0
22/08:30pm 22.8 18.2 5.7 33 8.6 SE 19 22 10 12 1010.8 1010.8 0.0
22/08:00pm 24.4 20.2 7.5 34 8.9 SE 19 22 10 12 1010.8 1010.8 0.0
22/07:30pm 25.1 20.6 6.8 31 9.6 SE 20 24 11 13 1010.7 1010.7 0.0
22/07:00pm 25.3 20.4 7.0 31 9.6 SE 22 24 12 13 1010.7 1010.7 0.0
22/06:30pm 25.4 20.6 5.6 28 10.1 SE 20 24 11 13 1010.8 1010.8 0.0
22/06:00pm 25.2 22.5 11.7 43 7.7 SSE 17 22 9 12 1010.7 1010.7 0.0
22/05:30pm 25.7 22.9 11.5 41 8.1 SSE 17 22 9 12 1010.8 1010.8 0.0
22/05:00pm 26.1 23.1 11.8 41 8.2 SE 19 24 10 13 1010.9 1010.9 0.0
22/04:30pm 25.8 22.1 11.6 41 8.1 SE 22 28 12 15 1010.8 1010.8 0.0
22/04:00pm 26.1 22.2 10.7 38 8.6 SE 22 28 12 15 1010.9 1010.9 0.0
22/03:30pm 26.8 23.8 14.9 48 7.2 SE 24 30 13 16 1011.2 1011.2 0.0
22/03:00pm 26.6 23.0 10.7 37 9.0 SE 20 28 11 15 1011.3 1011.3 0.0
22/02:30pm 26.7 23.5 12.0 40 8.5 ENE 20 26 11 14 1011.5 1011.5 0.0
22/02:00pm 26.8 23.0 9.2 33 9.7 ENE 19 22 10 12 1011.5 1011.5 0.0
22/01:30pm 26.1 22.3 9.0 34 9.3 ENE 19 24 10 13 1011.6 1011.6 0.0
22/01:00pm 27.2 24.7 12.4 40 8.6 E 17 22 9 12 1012.0 1012.0 0.0
22/12:30pm 26.4 22.3 7.9 31 9.9 ENE 19 22 10 12 1012.2 1012.2 0.0
22/12:00pm 26.7 22.3 6.7 28 10.5 ENE 19 22 10 12 1012.2 1012.2 0.0
22/11:30am 26.6 24.4 9.5 34 9.4 ESE 11 17 6 9 1012.5 1012.5 0.0
22/11:00am 25.5 23.3 10.9 40 8.2 SSE 13 17 7 9 1012.7 1012.7 0.0
22/10:30am 24.6 23.3 12.5 46 7.0 SSE 11 15 6 8 1012.6 1012.6 0.0
22/10:00am 24.1 23.5 13.6 52 6.1 SSE 9 13 5 7 1012.3 1012.3 0.0
22/09:30am 22.6 22.7 14.4 60 4.8 S 7 9 4 5 1012.3 1012.3 0.0
22/09:00am 21.6 21.5 15.0 66 3.9 SSE 9 13 5 7 1012.2 1012.2 0.0
22/08:30am 20.8 20.0 10.9 53 5.4 SSE 6 9 3 5 1012.0 1012.0 0.0
22/08:00am 18.2 16.7 9.3 56 4.7 NW 7 9 4 5 1011.7 1011.7 0.0
22/07:30am 15.2 13.2 8.7 65 3.3 NW 9 11 5 6 1011.5 1011.5 0.0
22/07:00am 12.9 9.9 7.8 71 2.5 NW 13 13 7 7 1011.5 1011.5 0.0
22/06:30am 12.4 9.6 7.1 70 2.6 NW 11 15 6 8 1011.3 1011.3 0.0
22/06:00am 12.4 9.4 7.5 72 2.4 NW 13 15 7 8 1011.0 1011.0 0.0
22/05:30am 12.8 10.3 6.6 66 3.0 NW 9 13 5 7 1010.8 1010.8 0.0
22/05:00am 13.2 10.0 6.8 65 3.1 NW 13 15 7 8 1010.9 1010.9 0.0
22/04:30am 12.6 10.0 6.0 64 3.1 NW 9 11 5 6 1010.8 1010.8 0.0
22/04:00am 12.9 10.0 6.3 64 3.1 NW 11 13 6 7 1010.8 1010.8 0.0
22/03:30am 12.9 9.9 6.0 63 3.3 WNW 11 13 6 7 1010.6 1010.6 0.0
22/03:00am 13.1 10.8 5.5 60 3.6 W 7 9 4 5 1010.8 1010.8 0.0
22/02:30am 13.9 10.5 6.0 59 3.8 NW 13 15 7 8 1010.9 1010.9 0.0
22/02:00am 14.0 11.4 5.9 58 3.8 WNW 9 13 5 7 1011.1 1011.1 0.0
22/01:30am 13.9 10.9 5.8 58 3.8 WNW 11 13 6 7 1011.3 1011.3 0.0
22/01:00am 14.3 11.7 6.2 58 3.9 WNW 9 11 5 6 1011.3 1011.3 0.0
22/12:30am 14.9 12.5 7.0 59 3.9 WNW 9 13 5 7 1011.3 1011.3 0.0
22/12:00am 16.3 14.2 8.3 59 4.1 W 9 11 5 6 1011.5 1011.5 0.0
 
Date/Time
CDT
Temp
°C
App
Temp
°C
Dew
Point
°C
Rel
Hum
%
Delta-T
°C
Wind Press
QNH
hPa
Press
MSL
hPa
Rain since
9am
mm
Dir  Spd
km/h
Gust
km/h
Spd
kts
Gust
kts
21/11:30pm 15.2 13.2 7.3 59 3.9 SW 7 11 4 6 1011.7 1011.7 0.0
21/11:00pm 16.0 14.1 7.5 57 4.2 SW 7 11 4 6 1011.7 1011.7 0.0
21/10:30pm 19.4 17.5 10.4 56 4.9 SSE 11 15 6 8 1011.5 1011.5 0.0
21/10:00pm 20.7 17.6 10.2 51 5.7 S 17 22 9 12 1011.6 1011.6 0.0
21/09:30pm 21.0 17.5 10.2 50 5.9 SSE 19 24 10 13 1011.3 1011.3 0.0
21/09:00pm 21.7 17.9 9.9 47 6.4 SE 20 24 11 13 1011.0 1011.0 0.0
21/08:30pm 22.6 20.3 10.4 46 6.7 SE 13 15 7 8 1010.9 1010.9 0.0

Other formats

Comma delimited format used in spreadsheet applications
http://www.bom.gov.au/fwo/IDS60801/IDS60801.95661.axf

JavaScript Object Notation format (JSON) in row-major order
http://www.bom.gov.au/fwo/IDS60801/IDS60801.95661.json

Data quality

Most of these data are generated automatically and are frequently updated. Quality checks on data are not normally performed. It is possible for incorrect values to appear. Refer to information at About Latest Weather Observations and please check the disclaimer before using these data.